createdAt,value
2023-01-13T00:02:39.050Z,97324.00
2023-01-13T00:08:00.593Z,97318.00
2023-01-13T00:13:26.979Z,97298.00
2023-01-13T00:18:51.497Z,97309.00
2023-01-13T00:24:13.042Z,97304.00
2023-01-13T00:29:36.646Z,97301.00
2023-01-13T00:34:59.304Z,97295.00
2023-01-13T00:40:21.013Z,97290.00
2023-01-13T00:45:42.674Z,97285.00
2023-01-13T00:51:07.199Z,97275.00
2023-01-13T00:56:39.653Z,97282.00
2023-01-13T01:02:02.055Z,97271.00
2023-01-13T01:07:23.608Z,97276.00
2023-01-13T01:12:45.130Z,97270.00
2023-01-13T01:18:06.542Z,97271.00
2023-01-13T01:23:32.778Z,97276.00
2023-01-13T01:28:54.998Z,97275.00
2023-01-13T01:34:16.792Z,97278.00
2023-01-13T01:39:38.397Z,97284.00
2023-01-13T01:45:03.016Z,97275.00
2023-01-13T01:50:25.355Z,97275.00
2023-01-13T01:55:47.215Z,97271.00
2023-01-13T02:01:09.629Z,97270.00
2023-01-13T02:06:31.625Z,97257.00
2023-01-13T02:12:11.556Z,97244.00
2023-01-13T02:17:56.383Z,97266.00
2023-01-13T02:23:44.870Z,97241.00
2023-01-13T02:30:02.338Z,97233.00
2023-01-13T02:35:37.165Z,97243.00
2023-01-13T02:41:24.509Z,97244.00
2023-01-13T02:47:05.691Z,97229.00
2023-01-13T02:52:38.409Z,97219.00
2023-01-13T02:58:04.692Z,97226.00
2023-01-13T03:03:25.895Z,97205.00
2023-01-13T03:09:03.646Z,97224.00
2023-01-13T03:14:41.940Z,97226.00
2023-01-13T03:20:08.366Z,97224.00
2023-01-13T03:25:39.207Z,97231.00
2023-01-13T03:31:06.620Z,97219.00
2023-01-13T03:36:30.673Z,97216.00
2023-01-13T03:42:02.375Z,97205.00
2023-01-13T03:47:29.781Z,97211.00
2023-01-13T03:53:00.136Z,97203.00
2023-01-13T03:58:26.069Z,97200.00
2023-01-13T04:04:00.371Z,97177.00
2023-01-13T04:09:30.791Z,97194.00
2023-01-13T04:14:53.991Z,97195.00
2023-01-13T04:20:16.032Z,97177.00
2023-01-13T04:25:40.845Z,97193.00
2023-01-13T04:31:02.343Z,97197.00
2023-01-13T04:36:27.798Z,97193.00
2023-01-13T04:42:02.643Z,97190.00
2023-01-13T04:47:24.009Z,97188.00
2023-01-13T04:52:47.279Z,97179.00
2023-01-13T04:58:10.661Z,97167.00
2023-01-13T05:03:31.958Z,97177.00
2023-01-13T05:08:53.616Z,97183.00
2023-01-13T05:14:33.569Z,97177.00
2023-01-13T05:19:55.194Z,97177.00
2023-01-13T05:25:22.494Z,97182.00
2023-01-13T05:30:46.261Z,97189.00
2023-01-13T05:36:08.357Z,97182.00
2023-01-13T05:41:48.420Z,97170.00
2023-01-13T05:47:10.568Z,97192.00
2023-01-13T05:52:32.301Z,97193.00
2023-01-13T05:57:53.641Z,97188.00
2023-01-13T06:03:16.232Z,97199.00
2023-01-13T06:08:39.682Z,97197.00
2023-01-13T06:14:01.300Z,97212.00
2023-01-13T06:19:22.691Z,97214.00
2023-01-13T06:24:49.008Z,97206.00
2023-01-13T06:30:10.974Z,97211.00
2023-01-13T06:35:35.364Z,97221.00
2023-01-13T06:40:56.678Z,97207.00
2023-01-13T06:46:18.337Z,97217.00
2023-01-13T06:51:39.802Z,97210.00
2023-01-13T06:57:02.382Z,97210.00
2023-01-13T07:02:23.871Z,97198.00
2023-01-13T07:07:45.480Z,97205.00
2023-01-13T07:13:26.060Z,97203.00
2023-01-13T07:18:48.291Z,97210.00
2023-01-13T07:24:09.581Z,97194.00
2023-01-13T07:29:31.115Z,97198.00
2023-01-13T07:34:52.426Z,97203.00
2023-01-13T07:40:14.215Z,97193.00
2023-01-13T07:45:35.672Z,97194.00
2023-01-13T07:51:01.073Z,97202.00
2023-01-13T07:56:22.564Z,97202.00
2023-01-13T08:01:47.120Z,97205.00
2023-01-13T08:07:08.764Z,97202.00
2023-01-13T08:12:52.336Z,97200.00
2023-01-13T08:18:21.401Z,97195.00
2023-01-13T08:23:44.941Z,97201.00
2023-01-13T08:29:06.410Z,97210.00
2023-01-13T08:34:28.030Z,97194.00
2023-01-13T08:39:49.585Z,97213.00
2023-01-13T08:45:13.474Z,97221.00
2023-01-13T08:50:34.639Z,97297.00
2023-01-13T08:55:57.042Z,97306.00
2023-01-13T09:01:23.877Z,97308.00
2023-01-13T09:06:45.647Z,97304.00
2023-01-13T09:12:26.635Z,97316.00
2023-01-13T09:17:48.311Z,97341.00
2023-01-13T09:23:10.845Z,97351.00
2023-01-13T09:28:33.648Z,97358.00
2023-01-13T09:34:13.149Z,97363.00
2023-01-13T09:39:35.864Z,97341.00
2023-01-13T09:46:28.552Z,97350.00
2023-01-13T09:52:03.101Z,97329.00
2023-01-13T09:57:27.459Z,97309.00
2023-01-13T10:03:13.696Z,97304.00
2023-01-13T10:08:46.043Z,97308.00
2023-01-13T10:14:27.274Z,97286.00
2023-01-13T10:19:51.604Z,97298.00
2023-01-13T10:25:27.068Z,97287.00
2023-01-13T10:30:48.695Z,97270.00
2023-01-13T10:36:13.423Z,97292.00
2023-01-13T10:41:36.403Z,97276.00
2023-01-13T10:46:59.518Z,97285.00
2023-01-13T10:52:31.017Z,97306.00
2023-01-13T10:57:52.608Z,97306.00
2023-01-13T11:03:24.459Z,97312.00
2023-01-13T11:08:48.133Z,97313.00
2023-01-13T11:14:42.312Z,97326.00
2023-01-13T11:20:17.432Z,97319.00
2023-01-13T11:25:43.308Z,97302.00
2023-01-13T11:31:35.468Z,97275.00
2023-01-13T11:37:00.821Z,97298.00
2023-01-13T11:42:45.463Z,97294.00
2023-01-13T11:48:12.507Z,97310.00
2023-01-13T11:53:53.041Z,97324.00
2023-01-13T11:59:35.339Z,97326.00
2023-01-13T12:05:09.009Z,97331.00
2023-01-13T12:10:36.126Z,97342.00
2023-01-13T12:16:06.767Z,97314.00
2023-01-13T12:21:34.225Z,97318.00
2023-01-13T12:27:12.030Z,97317.00
2023-01-13T12:32:38.524Z,97305.00
2023-01-13T12:38:16.769Z,97305.00
2023-01-13T12:44:01.459Z,97311.00
2023-01-13T12:49:36.716Z,97317.00
2023-01-13T12:54:58.236Z,97312.00
2023-01-13T13:00:20.191Z,97309.00
2023-01-13T13:06:02.094Z,97309.00
2023-01-13T13:12:03.164Z,97302.00
2023-01-13T13:17:31.809Z,97301.00
2023-01-13T13:22:53.086Z,97304.00
2023-01-13T13:28:19.984Z,97298.00
2023-01-13T13:34:12.267Z,97308.00
2023-01-13T13:39:53.327Z,97294.00
2023-01-13T13:45:41.741Z,97302.00
2023-01-13T13:51:14.409Z,97311.00
2023-01-13T13:56:42.310Z,97318.00
2023-01-13T14:02:14.705Z,97333.00
2023-01-13T14:07:45.029Z,97339.00
2023-01-13T14:13:19.594Z,97345.00
2023-01-13T14:18:47.860Z,97359.00
2023-01-13T14:24:17.665Z,97361.00
2023-01-13T14:29:39.449Z,97377.00
2023-01-13T14:35:00.837Z,97386.00
2023-01-13T14:40:38.259Z,97392.00
2023-01-13T14:46:03.046Z,97389.00
2023-01-13T14:51:27.642Z,97386.00
2023-01-13T14:56:55.253Z,97400.00
2023-01-13T15:02:25.826Z,97403.00
2023-01-13T15:08:21.044Z,97419.00
2023-01-13T15:13:53.458Z,97430.00
2023-01-13T15:19:15.078Z,97440.00
2023-01-13T15:24:36.544Z,97438.00
2023-01-13T15:29:58.005Z,97434.00
2023-01-13T15:35:20.187Z,97454.00
2023-01-13T15:40:42.553Z,97443.00
2023-01-13T15:46:30.229Z,97444.00
2023-01-13T15:51:51.668Z,97439.00
2023-01-13T15:57:21.349Z,97438.00
2023-01-13T16:02:44.516Z,97440.00
2023-01-13T16:08:06.041Z,97447.00
2023-01-13T16:13:27.941Z,97453.00
2023-01-13T16:18:50.306Z,97471.00
2023-01-13T16:24:11.756Z,97477.00
2023-01-13T16:29:33.259Z,97505.00
2023-01-13T16:34:54.884Z,97515.00
2023-01-13T16:40:27.260Z,97518.00
2023-01-13T16:45:48.559Z,97513.00
2023-01-13T16:51:09.983Z,97521.00
2023-01-13T16:56:33.818Z,97532.00
2023-01-13T17:01:57.902Z,97533.00
2023-01-13T17:07:19.635Z,97544.00
2023-01-13T17:12:41.341Z,97561.00
2023-01-13T17:18:03.319Z,97553.00
2023-01-13T17:23:24.937Z,97566.00
2023-01-13T17:28:46.735Z,97569.00
2023-01-13T17:34:08.007Z,97582.00
2023-01-13T17:39:29.492Z,97573.00
2023-01-13T17:44:50.961Z,97575.00
2023-01-13T17:50:12.358Z,97589.00
2023-01-13T17:55:33.737Z,97595.00
2023-01-13T18:00:55.230Z,97612.00
2023-01-13T18:06:23.529Z,97607.00
2023-01-13T18:11:47.073Z,97618.00
2023-01-13T18:17:08.938Z,97616.00
2023-01-13T18:22:48.811Z,97608.00
2023-01-13T18:28:10.537Z,97613.00
2023-01-13T18:33:31.884Z,97627.00
2023-01-13T18:38:53.391Z,97625.00
2023-01-13T18:44:15.145Z,97618.00
2023-01-13T18:49:36.896Z,97648.00
2023-01-13T18:54:58.421Z,97650.00
2023-01-13T19:00:22.045Z,97654.00
2023-01-13T19:05:43.282Z,97664.00
2023-01-13T19:11:08.685Z,97672.00
2023-01-13T19:16:30.204Z,97673.00
2023-01-13T19:21:51.485Z,97679.00
2023-01-13T19:27:14.665Z,97706.00
2023-01-13T19:32:36.035Z,97711.00
2023-01-13T19:38:00.051Z,97709.00
2023-01-13T19:43:40.534Z,97713.00
2023-01-13T19:49:01.968Z,97725.00
2023-01-13T19:54:23.702Z,97716.00
2023-01-13T19:59:45.151Z,97727.00
2023-01-13T20:05:08.205Z,97724.00
2023-01-13T20:10:30.757Z,97728.00
2023-01-13T20:15:51.865Z,97748.00
2023-01-13T20:21:13.221Z,97748.00
2023-01-13T20:26:34.780Z,97759.00
2023-01-13T20:31:56.870Z,97747.00
2023-01-13T20:37:18.487Z,97756.00
2023-01-13T20:42:46.833Z,97757.00
2023-01-13T20:48:08.229Z,97744.00
2023-01-13T20:53:29.711Z,97749.00
2023-01-13T20:58:51.386Z,97759.00
2023-01-13T21:04:12.837Z,97760.00
2023-01-13T21:09:34.326Z,97783.00
2023-01-13T21:15:14.407Z,97782.00
2023-01-13T21:20:37.208Z,97798.00
2023-01-13T21:26:04.417Z,97793.00
2023-01-13T21:31:27.166Z,97813.00
2023-01-13T21:36:48.870Z,97797.00
2023-01-13T21:42:38.127Z,97801.00
2023-01-13T21:47:59.582Z,97819.00
2023-01-13T21:53:21.159Z,97822.00
2023-01-13T21:58:42.783Z,97839.00
2023-01-13T22:04:13.223Z,97832.00
2023-01-13T22:09:34.636Z,97825.00
2023-01-13T22:14:56.801Z,97839.00
2023-01-13T22:20:19.350Z,97840.00
2023-01-13T22:25:40.804Z,97837.00
2023-01-13T22:31:02.427Z,97830.00
2023-01-13T22:36:24.374Z,97845.00
2023-01-13T22:41:45.813Z,97855.00
2023-01-13T22:47:08.686Z,97858.00
2023-01-13T22:52:30.401Z,97875.00
2023-01-13T22:57:51.839Z,97885.00
2023-01-13T23:03:13.282Z,97894.00
2023-01-13T23:08:35.081Z,97898.00
2023-01-13T23:14:09.812Z,97896.00
2023-01-13T23:19:31.100Z,97896.00
2023-01-13T23:24:52.341Z,97902.00
2023-01-13T23:30:13.763Z,97903.00
2023-01-13T23:35:35.520Z,97898.00
2023-01-13T23:40:58.021Z,97901.00
2023-01-13T23:46:20.349Z,97903.00
2023-01-13T23:51:41.942Z,97903.00
2023-01-13T23:57:03.525Z,97903.00
